Lille, France

8:06 AM CET on October 26, 2014 (GMT +0100)
Lesquin | Change Station
CLOSE
Current Station
Airport
Location: Lille,
Elevation: 154 ft
Nearby Weather Stations

Elev 154 ft 50.57 °N, 3.10 °E | Updated 6 minutes ago

Mostly Cloudy
Mostly Cloudy
52 °F
Feels Like 52 °F
N
4
Wind Variable Wind from SSW

Today
High -- | Low -- °F
--% Chance of Precip.
Yesterday
High -- | Low -- °F
Precip. -- in
7:28 AM 5:34 PM
Waxing Crescent, 6% visible
Pressure 30.24 in
Visibility 6.2 miles
Clouds Few 3000 ft
Mostly Cloudy 26000 ft
Dew Point 50 °F
Humidity 94%
Rainfall 0.00 in
Snow Depth Not available.
UV 0 out of 12
Pollen Not available.
Air Quality Not available.
Flu Activity Not available.
METAR LFQQ 260700Z 20003KT 9999 FEW030 BKN260 11/10 Q1024 NOSIG

More Conditions Fewer Conditions

Pressure 30.24 in
Visibility 6.2 miles
Clouds Few 3000 ft
Mostly Cloudy 26000 ft
Dew Point 50 °F
Humidity 94%
Rainfall 0.00 in
Snow Depth Not available.
UV 0 out of 12
Pollen Not available.
Air Quality Not available.
Flu Activity Not available.
METAR LFQQ 260700Z 20003KT 9999 FEW030 BKN260 11/10 Q1024 NOSIG

More Conditions Fewer Conditions

10-Day Weather Forecast

Almanac

Astronomy

Oct. 26, 2014 Rise Set
Actual Time 7:28 AM CET 5:34 PM CET
Civil Twilight 6:54 AM CET 6:07 PM CET
Nautical Twilight 6:16 AM CET 6:46 PM CET
Astronomical Twilight 5:38 AM CET 7:23 PM CET
Moon 10:01 AM CET 7:21 PM CET
Length of Visible Light 11h 13m
Length of Day
10h 05m
Tomorrow will be 3m 33s shorter.
Waxing Crescent, 6% of the Moon is Illuminated
Today
Waxing Crescent
Oct 30
First Quarter
Nov 6
Full
Nov 14
Last Quarter
Nov 22
New

Yesterday's Extremes

Country Highs Country Lows

Community

WunderPhotos

Upload Photos

1,765,115 photos uploaded!

Nearby

Snow Depth

Not available.

Earthquake Activity

City Distance Mag. Time & Date
No recent earthquake activity has been reported nearby.
Minimum magnitude displayed is 2.5.

Coastal Water Temperatures

Place Temperature
No Stations Reporting

Nearby Weather Stations